Time;durP1;ratioP1;P1;durP2;ratioP2;P2;SDS_P1;SDS_P2;PMS_P1;PMS_P2;Temp;Humidity;BMP_temperature;BMP_pressure;BME280_temperature;BME280_humidity;BME280_pressure;Samples;Min_cycle;Max_cycle;Signal;HPM_P1;HPM_P2
2023/02/01 00:00:13;;;;;;;4.28;3.05;;;;;;;;;;5047794;28;20033;-46
2023/02/01 00:02:40;;;;;;;3.92;2.50;;;;;;;;;;5045360;28;20647;-46
2023/02/01 00:05:08;;;;;;;4.03;2.85;;;;;;;;;;5047230;28;20059;-47
2023/02/01 00:07:34;;;;;;;4.25;2.83;;;;;;;;;;5047449;28;20033;-46
2023/02/01 00:10:00;;;;;;;5.35;2.80;;;;;;;;;;5047478;28;20025;-49
2023/02/01 00:12:26;;;;;;;5.72;3.08;;;;;;;;;;5047824;28;20029;-46
2023/02/01 00:14:52;;;;;;;5.43;3.08;;;;;;;;;;5031929;28;20575;-47
2023/02/01 00:17:19;;;;;;;5.25;3.08;;;;;;;;;;5027316;28;20045;-46
2023/02/01 00:19:46;;;;;;;5.40;3.25;;;;;;;;;;5027728;28;20028;-48
2023/02/01 00:22:13;;;;;;;6.32;3.33;;;;;;;;;;5027834;28;20439;-47
2023/02/01 00:24:39;;;;;;;5.95;3.25;;;;;;;;;;5027420;28;20076;-49
2023/02/01 00:27:05;;;;;;;6.10;3.80;;;;;;;;;;5027338;28;20444;-48
2023/02/01 00:29:31;;;;;;;4.90;3.13;;;;;;;;;;5027706;28;20112;-47
2023/02/01 00:31:57;;;;;;;6.28;3.47;;;;;;;;;;5026743;28;20033;-49
2023/02/01 00:34:23;;;;;;;10.07;5.43;;;;;;;;;;5027005;28;20025;-48
2023/02/01 00:36:50;;;;;;;11.23;5.72;;;;;;;;;;5027250;28;20424;-47
2023/02/01 00:39:16;;;;;;;10.05;5.38;;;;;;;;;;5027357;28;20053;-47
2023/02/01 00:41:42;;;;;;;8.02;4.70;;;;;;;;;;5027331;28;20037;-47
2023/02/01 00:44:08;;;;;;;8.18;4.80;;;;;;;;;;5027163;28;20028;-46
2023/02/01 00:46:34;;;;;;;9.10;4.30;;;;;;;;;;5027315;28;20029;-49
2023/02/01 00:49:00;;;;;;;9.10;4.82;;;;;;;;;;5026451;28;20032;-46
2023/02/01 00:51:26;;;;;;;13.57;6.60;;;;;;;;;;5026773;28;20037;-48
2023/02/01 00:53:53;;;;;;;14.23;7.00;;;;;;;;;;5026951;28;20026;-48
2023/02/01 00:56:19;;;;;;;18.40;7.95;;;;;;;;;;5026726;28;20108;-46
2023/02/01 00:58:45;;;;;;;15.15;7.60;;;;;;;;;;5027013;28;20025;-47
2023/02/01 01:01:11;;;;;;;14.25;7.05;;;;;;;;;;5026790;28;20057;-48
2023/02/01 01:03:38;;;;;;;13.23;6.30;;;;;;;;;;5026215;28;20467;-46
2023/02/01 06:11:03;;;;;;;5.50;4.00;;;;;;;;;;5046148;28;20083;-46
2023/02/01 06:13:29;;;;;;;6.47;4.10;;;;;;;;;;5046796;28;20504;-48
2023/02/01 06:15:56;;;;;;;6.45;4.40;;;;;;;;;;5048014;28;20622;-46
2023/02/01 06:18:23;;;;;;;6.22;4.15;;;;;;;;;;5048338;28;20025;-46
2023/02/01 06:20:55;;;;;;;6.95;4.07;;;;;;;;;;5048021;28;20037;-46
2023/02/01 06:23:23;;;;;;;7.32;4.10;;;;;;;;;;5048285;28;20140;-46
2023/02/01 06:25:53;;;;;;;5.05;3.63;;;;;;;;;;5048384;28;20025;-48
2023/02/01 06:28:19;;;;;;;6.75;4.50;;;;;;;;;;5047881;28;20021;-45
2023/02/01 06:30:45;;;;;;;7.72;5.20;;;;;;;;;;5048229;28;20037;-48
2023/02/01 06:33:14;;;;;;;9.10;5.25;;;;;;;;;;5048506;28;20033;-46
2023/02/01 06:35:42;;;;;;;9.85;5.95;;;;;;;;;;5048384;28;20099;-46
2023/02/01 06:38:08;;;;;;;9.18;5.65;;;;;;;;;;5048500;28;20020;-48
2023/02/01 06:40:35;;;;;;;8.93;5.47;;;;;;;;;;5047968;28;20029;-46
2023/02/01 06:43:01;;;;;;;9.30;5.57;;;;;;;;;;5048160;28;20071;-46
2023/02/01 06:45:27;;;;;;;8.20;5.40;;;;;;;;;;5047990;28;20033;-46
2023/02/01 06:47:53;;;;;;;7.90;5.38;;;;;;;;;;5047550;28;20104;-48
2023/02/01 06:50:20;;;;;;;8.48;5.43;;;;;;;;;;5045885;28;20044;-49
2023/02/01 06:52:46;;;;;;;8.32;4.40;;;;;;;;;;5046727;28;20029;-48
2023/02/01 06:55:13;;;;;;;7.28;4.85;;;;;;;;;;5047050;28;20033;-46
2023/02/01 06:57:39;;;;;;;7.35;5.15;;;;;;;;;;5049027;28;20021;-47
2023/02/01 07:00:05;;;;;;;5.97;4.43;;;;;;;;;;5051301;28;20083;-47
2023/02/01 07:02:31;;;;;;;8.73;5.70;;;;;;;;;;5054747;28;20100;-47
2023/02/01 07:04:57;;;;;;;7.65;5.30;;;;;;;;;;5049088;28;20056;-48
2023/02/01 07:07:23;;;;;;;8.48;5.57;;;;;;;;;;5050171;28;20029;-46
2023/02/01 07:09:50;;;;;;;6.63;4.95;;;;;;;;;;5050574;28;20035;-47
2023/02/01 07:12:16;;;;;;;6.60;4.68;;;;;;;;;;5050446;28;20423;-46
2023/02/01 07:14:42;;;;;;;10.60;6.05;;;;;;;;;;5050573;28;20037;-48
2023/02/01 07:17:08;;;;;;;8.32;5.03;;;;;;;;;;5049098;28;20025;-46
2023/02/01 07:19:34;;;;;;;6.78;4.20;;;;;;;;;;5051009;28;20454;-48
2023/02/01 07:22:00;;;;;;;7.45;4.30;;;;;;;;;;5050959;28;20032;-48
2023/02/01 07:24:26;;;;;;;6.30;4.18;;;;;;;;;;5052336;28;20032;-46
2023/02/01 07:26:52;;;;;;;7.90;4.30;;;;;;;;;;5052621;28;20067;-47
2023/02/01 07:29:19;;;;;;;7.32;4.10;;;;;;;;;;5049757;28;20036;-46
2023/02/01 07:31:45;;;;;;;4.97;3.80;;;;;;;;;;5051010;28;20044;-47
2023/02/01 07:34:11;;;;;;;6.57;4.20;;;;;;;;;;5051283;28;20610;-47
2023/02/01 07:36:38;;;;;;;7.85;4.45;;;;;;;;;;5050813;28;20033;-48
2023/02/01 07:39:04;;;;;;;6.15;3.95;;;;;;;;;;5050982;28;20104;-46
2023/02/01 07:41:30;;;;;;;6.38;3.88;;;;;;;;;;5048953;28;20116;-47
2023/02/01 07:43:56;;;;;;;6.65;3.92;;;;;;;;;;5050792;28;20446;-47
2023/02/01 07:46:23;;;;;;;6.97;4.20;;;;;;;;;;5050311;28;20025;-45
2023/02/01 07:48:49;;;;;;;7.82;5.18;;;;;;;;;;5050823;28;20104;-48
2023/02/01 07:51:17;;;;;;;8.80;4.97;;;;;;;;;;5049138;28;20120;-46
2023/02/01 07:53:45;;;;;;;8.77;4.90;;;;;;;;;;5050705;28;20039;-46
2023/02/01 07:56:14;;;;;;;12.80;5.97;;;;;;;;;;5049815;28;20028;-46
2023/02/01 07:58:40;;;;;;;9.77;5.97;;;;;;;;;;5050541;28;20021;-47
2023/02/01 08:01:22;;;;;;;9.55;5.60;;;;;;;;;;5049656;28;20055;-46
2023/02/01 08:03:49;;;;;;;9.48;5.95;;;;;;;;;;5050604;28;20534;-47
2023/02/01 08:06:16;;;;;;;9.55;4.70;;;;;;;;;;5050473;28;20412;-49
2023/02/01 08:08:44;;;;;;;8.75;5.07;;;;;;;;;;5047942;28;20078;-46
2023/02/01 08:11:10;;;;;;;7.80;4.90;;;;;;;;;;5049503;28;20428;-48
2023/02/01 08:13:37;;;;;;;8.20;5.13;;;;;;;;;;5050305;28;20091;-48
2023/02/01 08:16:04;;;;;;;8.10;5.38;;;;;;;;;;5050556;28;20029;-49
2023/02/01 08:18:30;;;;;;;7.68;5.55;;;;;;;;;;5050349;28;20022;-50
2023/02/01 08:20:56;;;;;;;9.00;5.22;;;;;;;;;;5049918;28;20033;-46
2023/02/01 08:23:24;;;;;;;8.45;5.03;;;;;;;;;;5050343;28;20021;-45
2023/02/01 08:25:51;;;;;;;7.53;4.60;;;;;;;;;;5049999;28;20025;-46
2023/02/01 08:28:17;;;;;;;6.18;4.30;;;;;;;;;;5049768;28;20396;-46
2023/02/01 08:30:43;;;;;;;7.53;4.75;;;;;;;;;;5047919;28;20033;-46
2023/02/01 08:33:09;;;;;;;7.28;4.70;;;;;;;;;;5048337;28;20029;-50
2023/02/01 08:35:35;;;;;;;7.15;4.28;;;;;;;;;;5048913;28;20033;-48
2023/02/01 08:38:01;;;;;;;5.82;4.05;;;;;;;;;;5047647;28;20043;-46
2023/02/01 08:40:27;;;;;;;5.97;3.58;;;;;;;;;;5048346;28;20187;-48
2023/02/01 08:42:54;;;;;;;4.55;3.55;;;;;;;;;;5048479;28;20025;-47
2023/02/01 08:45:24;;;;;;;5.57;3.72;;;;;;;;;;5048462;28;20348;-49
2023/02/01 08:47:51;;;;;;;5.70;3.78;;;;;;;;;;5048480;28;20419;-46
2023/02/01 08:50:17;;;;;;;5.05;3.30;;;;;;;;;;5048621;28;20033;-48
2023/02/01 08:52:43;;;;;;;5.38;3.50;;;;;;;;;;5048163;28;20051;-49
2023/02/01 08:55:10;;;;;;;5.13;3.58;;;;;;;;;;5048523;28;20025;-48
2023/02/01 08:57:37;;;;;;;4.00;2.83;;;;;;;;;;5048832;28;20051;-47
2023/02/01 09:00:04;;;;;;;4.30;2.88;;;;;;;;;;5048143;28;20553;-46
2023/02/01 09:02:30;;;;;;;4.50;2.97;;;;;;;;;;5049522;28;20096;-48
2023/02/01 09:04:56;;;;;;;5.78;3.13;;;;;;;;;;5049672;28;20025;-47
2023/02/01 09:07:23;;;;;;;4.72;3.03;;;;;;;;;;5049571;28;20025;-46
2023/02/01 09:09:49;;;;;;;5.10;3.15;;;;;;;;;;5049713;28;20025;-51
2023/02/01 09:12:15;;;;;;;4.30;2.72;;;;;;;;;;5049628;28;20396;-48
2023/02/01 09:14:41;;;;;;;4.45;2.92;;;;;;;;;;5052870;28;20448;-46
2023/02/01 09:17:07;;;;;;;4.80;3.13;;;;;;;;;;5055770;28;20505;-46
2023/02/01 09:19:33;;;;;;;5.00;3.28;;;;;;;;;;5051894;28;20546;-46
2023/02/01 09:21:59;;;;;;;4.05;2.90;;;;;;;;;;5054985;28;20029;-49
2023/02/01 09:24:25;;;;;;;4.20;3.05;;;;;;;;;;5047480;28;20031;-47
2023/02/01 09:26:52;;;;;;;4.75;3.25;;;;;;;;;;5047873;28;20029;-46
2023/02/01 09:29:19;;;;;;;5.05;3.47;;;;;;;;;;5047699;28;20025;-45
2023/02/01 09:31:45;;;;;;;5.00;3.40;;;;;;;;;;5047710;28;20039;-47
2023/02/01 09:34:11;;;;;;;4.55;3.22;;;;;;;;;;5047850;28;20025;-46
2023/02/01 09:36:37;;;;;;;5.93;3.97;;;;;;;;;;5047681;28;20396;-46
2023/02/01 09:39:03;;;;;;;4.72;3.17;;;;;;;;;;5047857;28;20032;-48
2023/02/01 09:41:43;;;;;;;5.53;3.47;;;;;;;;;;5047496;28;20043;-47
2023/02/01 09:44:09;;;;;;;6.25;3.35;;;;;;;;;;5047282;28;20024;-46
2023/02/01 09:46:35;;;;;;;5.45;3.30;;;;;;;;;;5047963;28;20025;-48
2023/02/01 09:49:03;;;;;;;5.30;3.25;;;;;;;;;;5047576;28;20385;-46
2023/02/01 09:51:31;;;;;;;6.78;3.83;;;;;;;;;;5047678;28;20464;-45
2023/02/01 09:53:58;;;;;;;5.28;3.45;;;;;;;;;;5047616;28;20025;-47
2023/02/01 09:56:27;;;;;;;6.03;3.70;;;;;;;;;;5047384;28;20025;-48
2023/02/01 09:58:59;;;;;;;4.45;3.20;;;;;;;;;;5047008;28;20029;-47
2023/02/01 10:01:26;;;;;;;4.25;3.08;;;;;;;;;;5047054;28;20070;-45
2023/02/01 10:03:58;;;;;;;5.50;3.35;;;;;;;;;;5047279;28;20509;-48
2023/02/01 10:06:37;;;;;;;4.30;2.88;;;;;;;;;;5047360;28;20176;-45
2023/02/01 10:09:15;;;;;;;4.85;2.95;;;;;;;;;;5047780;28;20032;-45
2023/02/01 10:11:55;;;;;;;4.18;2.90;;;;;;;;;;5047014;28;20022;-47
2023/02/01 10:14:25;;;;;;;5.40;2.65;;;;;;;;;;5054012;28;20562;-46
2023/02/01 10:17:02;;;;;;;3.40;2.70;;;;;;;;;;5062867;28;20059;-47
2023/02/01 10:19:27;;;;;;;3.83;2.72;;;;;;;;;;5068004;28;20407;-45
2023/02/01 10:22:23;;;;;;;5.45;3.10;;;;;;;;;;5068459;28;20032;-46
2023/02/01 10:25:05;;;;;;;3.60;2.38;;;;;;;;;;5055537;28;20062;-46
2023/02/01 10:27:35;;;;;;;3.42;2.40;;;;;;;;;;5067480;28;20085;-47
2023/02/01 10:30:04;;;;;;;2.97;2.20;;;;;;;;;;5065608;28;20098;-48
2023/02/01 10:32:34;;;;;;;3.83;2.45;;;;;;;;;;5065408;28;20028;-45
2023/02/01 10:35:01;;;;;;;3.60;2.55;;;;;;;;;;5066913;28;20074;-45
2023/02/01 10:37:27;;;;;;;5.50;2.45;;;;;;;;;;5066627;28;20090;-47
2023/02/01 10:39:55;;;;;;;4.38;2.45;;;;;;;;;;5066743;28;20037;-47
2023/02/01 10:42:23;;;;;;;2.58;1.90;;;;;;;;;;5067087;28;20032;-50
2023/02/01 10:44:49;;;;;;;3.10;2.35;;;;;;;;;;5066919;28;20060;-49
2023/02/01 10:47:16;;;;;;;2.92;2.20;;;;;;;;;;5066674;28;20372;-50
2023/02/01 10:49:59;;;;;;;2.97;2.00;;;;;;;;;;5066700;28;20036;-47
2023/02/01 10:52:39;;;;;;;1.80;1.50;;;;;;;;;;5066736;28;20099;-48
2023/02/01 10:55:24;;;;;;;2.35;1.90;;;;;;;;;;5067300;28;20085;-47
2023/02/01 10:57:56;;;;;;;3.22;1.90;;;;;;;;;;5066481;28;20027;-46
2023/02/01 11:00:22;;;;;;;2.35;1.60;;;;;;;;;;5066164;28;20515;-48
2023/02/01 11:02:50;;;;;;;2.92;1.85;;;;;;;;;;5066617;28;20017;-48
2023/02/01 11:05:18;;;;;;;2.70;2.10;;;;;;;;;;5066689;28;20067;-47
2023/02/01 11:07:48;;;;;;;2.28;1.70;;;;;;;;;;5066517;28;20059;-45
2023/02/01 11:10:38;;;;;;;2.85;1.80;;;;;;;;;;5066775;28;20033;-46
2023/02/01 11:13:04;;;;;;;3.03;1.58;;;;;;;;;;5066481;28;20090;-49
2023/02/01 11:15:30;;;;;;;1.90;1.48;;;;;;;;;;5064979;28;20055;-46
2023/02/01 11:17:56;;;;;;;3.03;1.70;;;;;;;;;;5066420;28;20560;-47
2023/02/01 11:20:31;;;;;;;1.98;1.70;;;;;;;;;;5066041;28;20029;-48
2023/02/01 11:22:59;;;;;;;1.98;1.40;;;;;;;;;;5066371;28;20024;-50
2023/02/01 11:25:25;;;;;;;1.98;1.25;;;;;;;;;;5066264;28;20078;-50
2023/02/01 11:27:54;;;;;;;1.70;1.15;;;;;;;;;;5053048;28;20095;-50
2023/02/01 11:30:27;;;;;;;1.30;1.20;;;;;;;;;;5046597;28;20048;-49
2023/02/01 11:32:53;;;;;;;3.73;1.77;;;;;;;;;;5046769;28;20084;-47
2023/02/01 11:35:21;;;;;;;2.05;1.55;;;;;;;;;;5047497;28;20033;-48
2023/02/01 11:37:58;;;;;;;1.50;1.33;;;;;;;;;;5047199;28;20365;-49
2023/02/01 11:40:29;;;;;;;3.78;2.25;;;;;;;;;;5047417;28;20029;-48
2023/02/01 11:42:58;;;;;;;5.43;2.33;;;;;;;;;;5047166;28;20029;-47
2023/02/01 11:45:24;;;;;;;3.38;2.15;;;;;;;;;;5050228;28;20039;-47
2023/02/01 11:47:55;;;;;;;2.85;1.90;;;;;;;;;;5048527;28;20108;-46
2023/02/01 11:50:42;;;;;;;3.03;1.95;;;;;;;;;;5049491;28;20522;-48
2023/02/01 11:53:08;;;;;;;3.00;1.83;;;;;;;;;;5049751;28;20136;-47
2023/02/01 11:55:43;;;;;;;2.63;1.70;;;;;;;;;;5049509;28;20594;-46
2023/02/01 11:58:24;;;;;;;2.13;1.77;;;;;;;;;;5050291;28;20035;-49
2023/02/01 12:01:00;;;;;;;2.90;1.85;;;;;;;;;;5050854;28;20033;-49
2023/02/01 12:03:26;;;;;;;1.67;1.33;;;;;;;;;;5050943;28;20029;-48
2023/02/01 12:06:00;;;;;;;2.50;1.60;;;;;;;;;;5050625;28;20033;-47
2023/02/01 12:08:49;;;;;;;1.90;1.33;;;;;;;;;;5050752;28;20044;-46
2023/02/01 12:11:21;;;;;;;2.85;1.52;;;;;;;;;;5049930;28;20036;-46
2023/02/01 12:14:06;;;;;;;2.15;1.50;;;;;;;;;;5050708;28;20124;-47
2023/02/01 12:16:44;;;;;;;2.28;1.60;;;;;;;;;;5050941;28;20025;-48
2023/02/01 12:19:18;;;;;;;2.70;1.80;;;;;;;;;;5050640;28;20035;-47
2023/02/01 12:22:00;;;;;;;1.83;1.35;;;;;;;;;;5050334;28;20500;-47
2023/02/01 12:24:26;;;;;;;1.85;1.38;;;;;;;;;;5052246;28;20062;-47
2023/02/01 12:26:57;;;;;;;2.60;1.50;;;;;;;;;;5063534;28;20500;-48
2023/02/01 12:29:34;;;;;;;2.03;1.40;;;;;;;;;;5050288;28;20041;-46
2023/02/01 12:32:06;;;;;;;2.38;1.65;;;;;;;;;;5049835;28;20082;-47
2023/02/01 12:34:44;;;;;;;2.33;1.70;;;;;;;;;;5050434;28;20083;-49
2023/02/01 12:37:10;;;;;;;3.28;1.55;;;;;;;;;;5070392;28;20025;-47
2023/02/01 12:39:40;;;;;;;2.25;1.60;;;;;;;;;;5066191;28;20029;-46
2023/02/01 12:42:21;;;;;;;2.78;1.50;;;;;;;;;;5050186;28;20025;-46
2023/02/01 12:44:47;;;;;;;2.28;1.65;;;;;;;;;;5050098;28;20025;-48
2023/02/01 12:47:19;;;;;;;3.25;1.73;;;;;;;;;;5051382;28;20048;-46
2023/02/01 12:49:48;;;;;;;2.00;1.30;;;;;;;;;;5049565;28;20025;-50
2023/02/01 12:52:17;;;;;;;2.63;1.38;;;;;;;;;;5050296;28;20037;-47
2023/02/01 12:54:50;;;;;;;1.75;1.27;;;;;;;;;;5047962;28;20484;-50
2023/02/01 12:57:18;;;;;;;1.77;1.13;;;;;;;;;;5050175;28;20032;-48
2023/02/01 13:00:02;;;;;;;1.52;1.23;;;;;;;;;;5049512;28;20102;-46
2023/02/01 13:02:47;;;;;;;1.70;1.25;;;;;;;;;;5030902;28;20033;-48
2023/02/01 13:05:16;;;;;;;1.52;1.30;;;;;;;;;;5040858;28;20051;-49
2023/02/01 13:07:54;;;;;;;1.38;1.00;;;;;;;;;;5049447;28;20024;-46
2023/02/01 13:10:37;;;;;;;2.78;1.45;;;;;;;;;;5046258;28;20107;-50
2023/02/01 13:13:17;;;;;;;1.58;1.10;;;;;;;;;;5049705;28;20094;-49
2023/02/01 13:15:46;;;;;;;2.45;1.40;;;;;;;;;;5049555;28;20028;-50
2023/02/01 13:18:18;;;;;;;1.98;1.13;;;;;;;;;;5048698;28;20024;-47
2023/02/01 13:20:50;;;;;;;2.22;1.42;;;;;;;;;;5048221;28;20043;-46
2023/02/01 13:23:24;;;;;;;1.70;1.25;;;;;;;;;;5048753;28;20036;-47
2023/02/01 13:25:52;;;;;;;2.45;1.80;;;;;;;;;;5048960;28;20112;-49
2023/02/01 13:28:27;;;;;;;3.60;2.47;;;;;;;;;;5049126;28;20021;-49
2023/02/01 13:31:12;;;;;;;6.65;2.55;;;;;;;;;;5048746;28;20040;-47
2023/02/01 13:33:57;;;;;;;3.10;1.85;;;;;;;;;;5048956;28;20448;-46
2023/02/01 13:36:23;;;;;;;;;;;;;;;;;;5049142;28;20033;-47
2023/02/01 13:39:08;;;;;;;2.00;1.50;;;;;;;;;;5048983;28;19909;-47
2023/02/01 13:41:43;;;;;;;3.13;1.67;;;;;;;;;;5048584;28;20431;-47
2023/02/01 13:44:15;;;;;;;2.15;1.20;;;;;;;;;;5047300;28;20108;-50
2023/02/01 13:46:45;;;;;;;1.52;0.95;;;;;;;;;;5047511;28;20526;-48
2023/02/01 13:49:22;;;;;;;1.90;1.00;;;;;;;;;;5048899;28;20104;-50
2023/02/01 13:51:51;;;;;;;2.33;1.58;;;;;;;;;;5048870;28;20040;-47
2023/02/01 13:54:25;;;;;;;2.25;1.20;;;;;;;;;;5048595;28;20033;-48
2023/02/01 13:56:52;;;;;;;1.55;1.10;;;;;;;;;;5048917;28;20104;-48
2023/02/01 13:59:48;;;;;;;1.08;0.90;;;;;;;;;;5049238;28;20037;-48
2023/02/01 14:02:33;;;;;;;2.20;1.10;;;;;;;;;;4995049;28;20072;-48
2023/02/01 14:05:00;;;;;;;2.05;1.10;;;;;;;;;;5048903;28;20029;-47
2023/02/01 14:07:26;;;;;;;1.67;1.10;;;;;;;;;;5049499;28;20115;-48
2023/02/01 14:09:53;;;;;;;3.45;1.00;;;;;;;;;;5048159;28;20029;-48
2023/02/01 14:12:38;;;;;;;1.00;0.88;;;;;;;;;;5047696;28;20508;-47
2023/02/01 14:15:24;;;;;;;1.90;0.85;;;;;;;;;;5049609;28;20041;-47
2023/02/01 14:17:50;;;;;;;1.48;1.00;;;;;;;;;;5049575;28;20115;-46
2023/02/01 14:20:34;;;;;;;1.98;1.02;;;;;;;;;;5049275;28;20025;-50
2023/02/01 14:23:02;;;;;;;2.25;1.42;;;;;;;;;;5029504;28;20033;-46
2023/02/01 14:25:33;;;;;;;1.73;1.00;;;;;;;;;;5029264;28;20037;-48
2023/02/01 14:27:59;;;;;;;1.67;0.95;;;;;;;;;;5040020;28;20472;-46
2023/02/01 14:30:25;;;;;;;1.73;1.08;;;;;;;;;;5048829;28;20036;-47
2023/02/01 14:32:51;;;;;;;2.38;1.00;;;;;;;;;;5049205;28;20027;-50
2023/02/01 14:35:36;;;;;;;1.27;0.80;;;;;;;;;;5046832;28;20033;-46
2023/02/01 14:38:03;;;;;;;1.38;0.90;;;;;;;;;;5049218;28;20017;-47
2023/02/01 14:40:30;;;;;;;2.47;1.15;;;;;;;;;;5047832;28;20064;-48
2023/02/01 14:42:56;;;;;;;2.03;0.93;;;;;;;;;;5049298;28;20013;-47
2023/02/01 14:45:22;;;;;;;1.90;1.10;;;;;;;;;;5047350;28;20072;-46
2023/02/01 14:47:56;;;;;;;1.23;0.93;;;;;;;;;;5054480;28;20594;-46
2023/02/01 14:50:37;;;;;;;0.98;0.90;;;;;;;;;;5050452;28;20029;-48
2023/02/01 14:53:09;;;;;;;1.15;0.98;;;;;;;;;;5048586;28;20099;-48
2023/02/01 14:55:40;;;;;;;1.13;0.90;;;;;;;;;;5047544;28;20041;-46
2023/02/01 14:58:10;;;;;;;1.00;0.90;;;;;;;;;;5049430;28;20036;-47
2023/02/01 15:00:36;;;;;;;1.42;0.90;;;;;;;;;;5048317;28;20550;-46
2023/02/01 15:03:14;;;;;;;1.10;0.98;;;;;;;;;;5049053;28;20488;-50
2023/02/01 15:05:40;;;;;;;2.17;0.85;;;;;;;;;;5048778;28;20098;-48
2023/02/01 15:08:18;;;;;;;1.40;0.90;;;;;;;;;;5054544;28;20026;-46
2023/02/01 15:10:46;;;;;;;1.27;0.90;;;;;;;;;;5050533;28;20134;-49
2023/02/01 15:13:23;;;;;;;1.23;0.90;;;;;;;;;;5046850;28;20029;-48
2023/02/01 15:16:06;;;;;;;1.60;1.25;;;;;;;;;;5048956;28;20033;-48
2023/02/01 15:18:32;;;;;;;2.65;1.20;;;;;;;;;;5052614;28;20025;-47
2023/02/01 15:21:00;;;;;;;2.25;0.90;;;;;;;;;;5052285;28;20048;-49
2023/02/01 15:23:27;;;;;;;0.80;0.70;;;;;;;;;;5052242;28;20017;-49
2023/02/01 15:25:53;;;;;;;1.05;0.88;;;;;;;;;;5052225;28;20032;-49
2023/02/01 15:28:20;;;;;;;1.02;0.80;;;;;;;;;;5052499;28;20732;-48
2023/02/01 15:30:54;;;;;;;1.50;0.98;;;;;;;;;;5052519;28;20085;-47
2023/02/01 15:33:21;;;;;;;3.88;1.38;;;;;;;;;;5051398;28;20033;-47
2023/02/01 15:35:49;;;;;;;2.42;1.20;;;;;;;;;;5051220;28;20029;-50
2023/02/01 15:38:24;;;;;;;1.70;1.30;;;;;;;;;;5050769;28;20033;-48
2023/02/01 15:41:02;;;;;;;1.73;1.23;;;;;;;;;;5052062;28;20043;-50
2023/02/01 15:43:30;;;;;;;2.17;1.40;;;;;;;;;;5052321;28;20319;-46
2023/02/01 15:45:57;;;;;;;2.58;1.35;;;;;;;;;;5052212;28;20451;-50
2023/02/01 15:48:25;;;;;;;2.67;1.63;;;;;;;;;;5051952;28;20493;-50
2023/02/01 15:50:52;;;;;;;3.15;1.75;;;;;;;;;;5051617;28;20029;-47
2023/02/01 15:53:20;;;;;;;2.63;1.20;;;;;;;;;;5050916;28;20025;-49
2023/02/01 15:55:47;;;;;;;2.50;1.58;;;;;;;;;;5048444;28;20037;-49
2023/02/01 15:58:24;;;;;;;1.50;1.20;;;;;;;;;;5050065;28;20024;-49
2023/02/01 16:00:55;;;;;;;5.75;1.52;;;;;;;;;;5050457;28;20029;-49
2023/02/01 16:03:39;;;;;;;2.03;1.30;;;;;;;;;;5050448;28;20084;-51
2023/02/01 16:06:10;;;;;;;1.63;1.25;;;;;;;;;;5050376;28;20115;-50
2023/02/01 16:08:37;;;;;;;2.03;1.27;;;;;;;;;;5049138;28;20064;-47
2023/02/01 16:11:09;;;;;;;1.60;1.30;;;;;;;;;;5050076;28;20064;-46
2023/02/01 16:13:35;;;;;;;1.42;1.20;;;;;;;;;;5042683;28;20041;-47
2023/02/01 16:16:02;;;;;;;1.20;1.10;;;;;;;;;;5045420;28;20455;-48
2023/02/01 16:18:28;;;;;;;1.77;1.45;;;;;;;;;;5050458;28;20082;-48
2023/02/01 16:20:54;;;;;;;2.08;1.25;;;;;;;;;;5050911;28;20087;-47
2023/02/01 16:23:20;;;;;;;1.67;1.38;;;;;;;;;;5051063;28;20563;-48
2023/02/01 16:25:46;;;;;;;2.90;1.70;;;;;;;;;;5051451;28;20025;-45
2023/02/01 16:28:12;;;;;;;1.60;1.30;;;;;;;;;;5050533;28;20025;-47
2023/02/01 16:30:38;;;;;;;2.65;1.80;;;;;;;;;;5051115;28;20111;-48
2023/02/01 16:33:18;;;;;;;2.72;1.52;;;;;;;;;;5050441;28;20024;-47
2023/02/01 16:35:45;;;;;;;2.58;1.80;;;;;;;;;;5048737;28;20049;-46
2023/02/01 16:38:12;;;;;;;2.25;1.52;;;;;;;;;;5049642;28;20032;-47
2023/02/01 16:40:39;;;;;;;3.00;1.83;;;;;;;;;;5050065;28;20106;-47
2023/02/01 16:43:15;;;;;;;4.07;2.25;;;;;;;;;;5050088;28;20111;-46
2023/02/01 16:45:48;;;;;;;2.85;1.90;;;;;;;;;;5048116;28;20029;-46
2023/02/01 16:48:19;;;;;;;2.28;1.70;;;;;;;;;;5048325;28;20111;-46
2023/02/01 16:50:47;;;;;;;2.45;1.75;;;;;;;;;;5045235;28;20120;-49
2023/02/01 16:53:14;;;;;;;3.85;1.83;;;;;;;;;;5049462;28;20704;-49
2023/02/01 16:55:43;;;;;;;2.45;1.63;;;;;;;;;;5048368;28;20040;-49
2023/02/01 16:58:10;;;;;;;2.28;1.42;;;;;;;;;;5049649;28;20802;-47
2023/02/01 17:00:37;;;;;;;3.35;1.92;;;;;;;;;;5048949;28;20059;-46
2023/02/01 17:03:04;;;;;;;1.77;1.30;;;;;;;;;;5047552;28;20025;-46
2023/02/01 17:05:31;;;;;;;2.80;1.60;;;;;;;;;;5049392;28;20028;-47
2023/02/01 17:07:59;;;;;;;2.13;1.42;;;;;;;;;;5048158;28;20488;-46
2023/02/01 17:10:25;;;;;;;2.78;1.63;;;;;;;;;;5048361;28;20140;-46
2023/02/01 17:12:51;;;;;;;1.90;1.30;;;;;;;;;;5043789;28;20043;-46
2023/02/01 17:15:17;;;;;;;1.83;1.33;;;;;;;;;;5027439;28;20025;-48
2023/02/01 17:17:44;;;;;;;1.98;1.42;;;;;;;;;;5028855;28;20026;-48
2023/02/01 17:20:21;;;;;;;4.35;2.30;;;;;;;;;;5029019;28;20033;-47
2023/02/01 17:22:48;;;;;;;7.00;3.00;;;;;;;;;;5027472;28;20021;-46
2023/02/01 17:25:14;;;;;;;6.75;3.10;;;;;;;;;;5029112;28;20072;-46
2023/02/01 17:27:41;;;;;;;7.57;3.45;;;;;;;;;;5028470;28;20036;-46
2023/02/01 17:30:09;;;;;;;7.72;3.50;;;;;;;;;;5028598;28;20044;-46
2023/02/01 17:32:36;;;;;;;5.95;3.03;;;;;;;;;;5028863;28;20025;-48
2023/02/01 17:35:02;;;;;;;8.85;3.80;;;;;;;;;;5028553;28;20033;-47
2023/02/01 17:37:30;;;;;;;6.57;3.30;;;;;;;;;;5028451;28;20040;-50
2023/02/01 17:39:56;;;;;;;6.47;3.40;;;;;;;;;;5028608;28;20505;-48
2023/02/01 17:42:26;;;;;;;5.35;2.85;;;;;;;;;;5028610;28;20047;-48
2023/02/01 17:44:54;;;;;;;6.10;3.65;;;;;;;;;;5028883;28;20492;-47
2023/02/01 17:47:20;;;;;;;5.85;3.20;;;;;;;;;;5028808;28;20447;-46
2023/02/01 17:49:50;;;;;;;5.93;3.30;;;;;;;;;;5027880;28;20108;-46
2023/02/01 17:52:17;;;;;;;5.35;3.05;;;;;;;;;;5025380;28;20436;-46
2023/02/01 17:54:46;;;;;;;5.70;3.40;;;;;;;;;;5028620;28;20174;-47
2023/02/01 17:57:13;;;;;;;5.85;3.10;;;;;;;;;;5027266;28;20036;-46
2023/02/01 17:59:40;;;;;;;14.23;6.13;;;;;;;;;;5024478;28;20392;-45
2023/02/01 18:02:22;;;;;;;11.40;5.13;;;;;;;;;;5026369;28;20447;-46
2023/02/01 18:04:49;;;;;;;10.32;5.00;;;;;;;;;;5024855;28;20029;-49
2023/02/01 18:07:15;;;;;;;10.10;4.70;;;;;;;;;;5024400;28;20048;-47
2023/02/01 18:09:41;;;;;;;8.68;4.25;;;;;;;;;;5006253;28;20078;-47
2023/02/01 18:12:30;;;;;;;7.13;3.65;;;;;;;;;;5022650;28;20508;-47
2023/02/01 18:14:57;;;;;;;7.13;3.50;;;;;;;;;;5042952;28;20075;-47
2023/02/01 18:17:24;;;;;;;5.35;3.40;;;;;;;;;;5043163;28;20037;-48
2023/02/01 18:19:50;;;;;;;8.65;4.70;;;;;;;;;;5045373;28;20041;-50
2023/02/01 18:22:18;;;;;;;7.93;3.92;;;;;;;;;;5045379;28;20032;-47
2023/02/01 18:24:44;;;;;;;6.53;3.58;;;;;;;;;;5046002;28;20151;-47
2023/02/01 18:27:10;;;;;;;6.15;3.50;;;;;;;;;;5043914;28;20059;-47
2023/02/01 18:29:36;;;;;;;4.72;2.50;;;;;;;;;;5044068;28;20082;-46
2023/02/01 18:32:02;;;;;;;6.60;3.10;;;;;;;;;;5044274;28;20061;-48
2023/02/01 18:34:29;;;;;;;4.53;2.83;;;;;;;;;;5043672;28;20028;-48
2023/02/01 18:36:55;;;;;;;6.47;2.58;;;;;;;;;;5044803;28;20032;-49
2023/02/01 18:39:21;;;;;;;5.97;2.75;;;;;;;;;;5045188;28;20491;-49
2023/02/01 18:41:48;;;;;;;4.72;3.38;;;;;;;;;;5046005;28;20029;-48
2023/02/01 18:44:14;;;;;;;3.35;2.53;;;;;;;;;;5030518;28;20029;-48
2023/02/01 18:46:41;;;;;;;5.63;2.60;;;;;;;;;;5044577;28;20032;-49
2023/02/01 18:49:07;;;;;;;4.97;2.45;;;;;;;;;;5043136;28;20469;-47
2023/02/01 18:51:34;;;;;;;2.65;2.05;;;;;;;;;;5045664;28;20029;-47
2023/02/01 18:54:00;;;;;;;3.72;2.03;;;;;;;;;;5048520;28;20432;-48
2023/02/01 18:56:26;;;;;;;5.57;2.17;;;;;;;;;;5047926;28;20462;-49
2023/02/01 18:58:52;;;;;;;3.38;1.77;;;;;;;;;;5049094;28;20628;-46
2023/02/01 19:01:20;;;;;;;4.65;1.98;;;;;;;;;;5047883;28;20040;-50
2023/02/01 19:03:46;;;;;;;3.55;2.13;;;;;;;;;;5048218;28;20028;-48
2023/02/01 19:06:12;;;;;;;2.75;1.60;;;;;;;;;;5047762;28;20033;-47
2023/02/01 19:08:38;;;;;;;5.32;2.38;;;;;;;;;;5047525;28;20021;-48
2023/02/01 19:11:09;;;;;;;4.43;2.00;;;;;;;;;;5041453;28;20475;-49
2023/02/01 19:13:35;;;;;;;9.82;4.05;;;;;;;;;;5047619;28;20033;-47
2023/02/01 19:16:07;;;;;;;14.68;5.95;;;;;;;;;;5047155;28;20570;-47
2023/02/01 19:18:35;;;;;;;19.65;7.32;;;;;;;;;;5048038;28;20305;-46
2023/02/01 19:21:04;;;;;;;18.75;7.55;;;;;;;;;;5047801;28;20028;-49
2023/02/01 19:23:32;;;;;;;17.50;8.35;;;;;;;;;;5047655;28;20028;-49
2023/02/01 19:25:58;;;;;;;17.13;8.32;;;;;;;;;;5048326;28;20435;-46
2023/02/01 19:28:24;;;;;;;19.40;8.45;;;;;;;;;;5048598;28;20040;-46
2023/02/01 19:30:50;;;;;;;17.25;8.20;;;;;;;;;;5046436;28;20112;-47
2023/02/01 19:33:17;;;;;;;15.23;6.97;;;;;;;;;;5046990;28;20526;-48
2023/02/01 19:35:43;;;;;;;12.13;6.00;;;;;;;;;;5047472;28;20032;-47
2023/02/01 19:38:10;;;;;;;12.13;5.70;;;;;;;;;;5048607;28;20025;-49
2023/02/01 19:40:36;;;;;;;11.45;5.78;;;;;;;;;;5048557;28;20033;-50
2023/02/01 19:43:02;;;;;;;13.98;6.20;;;;;;;;;;5046222;28;20036;-45
2023/02/01 19:45:28;;;;;;;11.85;5.88;;;;;;;;;;5047222;28;20519;-48
2023/02/01 19:47:54;;;;;;;10.40;5.90;;;;;;;;;;5046431;28;20029;-47
2023/02/01 19:50:21;;;;;;;10.13;5.35;;;;;;;;;;5048405;28;20045;-48
2023/02/01 19:52:48;;;;;;;10.05;4.63;;;;;;;;;;5049016;28;20377;-47
2023/02/01 19:55:14;;;;;;;10.43;4.75;;;;;;;;;;5047859;28;20037;-46
2023/02/01 19:57:42;;;;;;;8.80;4.10;;;;;;;;;;5048297;28;20460;-49
2023/02/01 20:00:10;;;;;;;8.55;4.10;;;;;;;;;;5049634;28;20043;-49